sensor_id;sensor_type;location;lat;lon;timestamp;temperature;humidity
12977;DHT22;6553;48.412;9.514;2023-07-31T00:00:27;21.50;77.80
12977;DHT22;6553;48.412;9.514;2023-07-31T00:02:54;21.50;77.80
12977;DHT22;6553;48.412;9.514;2023-07-31T00:05:20;21.50;77.80
12977;DHT22;6553;48.412;9.514;2023-07-31T00:07:46;21.50;77.80
12977;DHT22;6553;48.412;9.514;2023-07-31T00:10:12;21.50;77.90
12977;DHT22;6553;48.412;9.514;2023-07-31T00:12:39;21.50;77.80
12977;DHT22;6553;48.412;9.514;2023-07-31T00:15:09;21.50;77.80
12977;DHT22;6553;48.412;9.514;2023-07-31T00:17:36;21.50;77.80
12977;DHT22;6553;48.412;9.514;2023-07-31T00:20:02;21.50;77.80
12977;DHT22;6553;48.412;9.514;2023-07-31T00:22:28;21.50;77.70
12977;DHT22;6553;48.412;9.514;2023-07-31T00:24:55;21.50;77.70
12977;DHT22;6553;48.412;9.514;2023-07-31T00:27:22;21.50;77.70
12977;DHT22;6553;48.412;9.514;2023-07-31T00:29:47;21.50;77.70
12977;DHT22;6553;48.412;9.514;2023-07-31T00:32:13;21.50;78.50
12977;DHT22;6553;48.412;9.514;2023-07-31T00:34:39;21.50;77.60
12977;DHT22;6553;48.412;9.514;2023-07-31T00:37:05;21.50;77.60
12977;DHT22;6553;48.412;9.514;2023-07-31T00:39:30;21.50;77.70
12977;DHT22;6553;48.412;9.514;2023-07-31T00:41:56;21.50;77.60
12977;DHT22;6553;48.412;9.514;2023-07-31T00:44:22;21.50;77.70
12977;DHT22;6553;48.412;9.514;2023-07-31T00:46:48;21.50;77.50
12977;DHT22;6553;48.412;9.514;2023-07-31T00:49:15;21.50;77.60
12977;DHT22;6553;48.412;9.514;2023-07-31T00:51:41;21.50;77.60
12977;DHT22;6553;48.412;9.514;2023-07-31T00:54:07;21.50;77.50
12977;DHT22;6553;48.412;9.514;2023-07-31T00:56:33;21.40;77.40
12977;DHT22;6553;48.412;9.514;2023-07-31T00:59:00;21.40;77.50
12977;DHT22;6553;48.412;9.514;2023-07-31T01:01:26;21.40;77.50
12977;DHT22;6553;48.412;9.514;2023-07-31T01:03:53;21.40;77.50
12977;DHT22;6553;48.412;9.514;2023-07-31T01:12:17;21.40;77.40
12977;DHT22;6553;48.412;9.514;2023-07-31T01:15:06;21.40;77.40
12977;DHT22;6553;48.412;9.514;2023-07-31T01:17:37;21.40;77.40
12977;DHT22;6553;48.412;9.514;2023-07-31T01:20:11;21.40;77.40
12977;DHT22;6553;48.412;9.514;2023-07-31T01:31:12;21.40;77.40
12977;DHT22;6553;48.412;9.514;2023-07-31T01:33:41;21.40;77.30
12977;DHT22;6553;48.412;9.514;2023-07-31T01:36:08;21.40;77.20
12977;DHT22;6553;48.412;9.514;2023-07-31T01:38:34;21.40;77.40
12977;DHT22;6553;48.412;9.514;2023-07-31T01:41:01;21.40;77.20
12977;DHT22;6553;48.412;9.514;2023-07-31T01:43:27;21.40;77.30
12977;DHT22;6553;48.412;9.514;2023-07-31T01:45:53;21.40;77.30
12977;DHT22;6553;48.412;9.514;2023-07-31T01:48:18;21.40;77.40
12977;DHT22;6553;48.412;9.514;2023-07-31T01:50:45;21.40;77.40
12977;DHT22;6553;48.412;9.514;2023-07-31T01:53:10;21.40;77.30
12977;DHT22;6553;48.412;9.514;2023-07-31T01:55:37;21.40;77.30
12977;DHT22;6553;48.412;9.514;2023-07-31T01:58:03;21.40;77.30
12977;DHT22;6553;48.412;9.514;2023-07-31T02:00:29;21.40;77.30
12977;DHT22;6553;48.412;9.514;2023-07-31T02:02:55;21.40;77.30
12977;DHT22;6553;48.412;9.514;2023-07-31T02:05:20;21.40;77.20
12977;DHT22;6553;48.412;9.514;2023-07-31T02:07:46;21.40;77.10
12977;DHT22;6553;48.412;9.514;2023-07-31T02:10:12;21.40;77.20
12977;DHT22;6553;48.412;9.514;2023-07-31T02:12:38;21.40;77.20
12977;DHT22;6553;48.412;9.514;2023-07-31T02:15:04;21.40;77.20
12977;DHT22;6553;48.412;9.514;2023-07-31T02:17:30;21.40;77.10
12977;DHT22;6553;48.412;9.514;2023-07-31T02:19:55;21.40;77.20
12977;DHT22;6553;48.412;9.514;2023-07-31T02:22:21;21.40;77.20
12977;DHT22;6553;48.412;9.514;2023-07-31T02:24:47;21.40;77.10
12977;DHT22;6553;48.412;9.514;2023-07-31T02:27:12;21.30;77.00
12977;DHT22;6553;48.412;9.514;2023-07-31T02:29:38;21.30;77.00
12977;DHT22;6553;48.412;9.514;2023-07-31T02:32:04;21.30;76.90
12977;DHT22;6553;48.412;9.514;2023-07-31T02:34:30;21.30;77.00
12977;DHT22;6553;48.412;9.514;2023-07-31T02:36:56;21.30;77.10
12977;DHT22;6553;48.412;9.514;2023-07-31T02:39:22;21.30;77.00
12977;DHT22;6553;48.412;9.514;2023-07-31T02:41:47;21.30;77.10
12977;DHT22;6553;48.412;9.514;2023-07-31T02:44:13;21.30;77.00
12977;DHT22;6553;48.412;9.514;2023-07-31T02:46:40;21.30;77.00
12977;DHT22;6553;48.412;9.514;2023-07-31T02:49:06;21.30;76.90
12977;DHT22;6553;48.412;9.514;2023-07-31T02:51:31;21.30;77.00
12977;DHT22;6553;48.412;9.514;2023-07-31T02:53:57;21.30;77.10
12977;DHT22;6553;48.412;9.514;2023-07-31T02:56:23;21.30;77.00
12977;DHT22;6553;48.412;9.514;2023-07-31T02:58:48;21.30;77.00
12977;DHT22;6553;48.412;9.514;2023-07-31T03:01:14;21.30;76.90
12977;DHT22;6553;48.412;9.514;2023-07-31T03:03:41;21.30;76.90
12977;DHT22;6553;48.412;9.514;2023-07-31T03:06:07;21.30;76.90
12977;DHT22;6553;48.412;9.514;2023-07-31T03:08:33;21.30;76.90
12977;DHT22;6553;48.412;9.514;2023-07-31T03:10:59;21.30;76.80
12977;DHT22;6553;48.412;9.514;2023-07-31T03:13:24;21.30;76.80
12977;DHT22;6553;48.412;9.514;2023-07-31T03:15:50;21.30;76.80
12977;DHT22;6553;48.412;9.514;2023-07-31T03:18:16;21.30;76.80
12977;DHT22;6553;48.412;9.514;2023-07-31T03:20:43;21.30;76.80
12977;DHT22;6553;48.412;9.514;2023-07-31T03:23:11;21.30;76.80
12977;DHT22;6553;48.412;9.514;2023-07-31T03:25:37;21.30;76.90
12977;DHT22;6553;48.412;9.514;2023-07-31T03:28:03;21.30;76.80
12977;DHT22;6553;48.412;9.514;2023-07-31T03:30:29;21.30;76.90
12977;DHT22;6553;48.412;9.514;2023-07-31T03:32:55;21.30;76.80
12977;DHT22;6553;48.412;9.514;2023-07-31T03:35:21;21.30;76.80
12977;DHT22;6553;48.412;9.514;2023-07-31T03:37:47;21.20;76.80
12977;DHT22;6553;48.412;9.514;2023-07-31T03:40:13;21.30;76.80
12977;DHT22;6553;48.412;9.514;2023-07-31T03:42:38;21.30;76.80
12977;DHT22;6553;48.412;9.514;2023-07-31T03:45:05;21.30;76.80
12977;DHT22;6553;48.412;9.514;2023-07-31T03:47:31;21.20;76.60
12977;DHT22;6553;48.412;9.514;2023-07-31T03:49:57;21.20;76.70
12977;DHT22;6553;48.412;9.514;2023-07-31T03:52:23;21.20;76.70
12977;DHT22;6553;48.412;9.514;2023-07-31T03:54:48;21.20;76.60
12977;DHT22;6553;48.412;9.514;2023-07-31T03:57:14;21.30;76.70
12977;DHT22;6553;48.412;9.514;2023-07-31T03:59:40;21.20;76.60
12977;DHT22;6553;48.412;9.514;2023-07-31T04:02:05;21.30;76.70
12977;DHT22;6553;48.412;9.514;2023-07-31T04:04:31;21.30;76.70
12977;DHT22;6553;48.412;9.514;2023-07-31T04:06:57;21.20;76.60
12977;DHT22;6553;48.412;9.514;2023-07-31T04:09:22;21.20;76.60
12977;DHT22;6553;48.412;9.514;2023-07-31T04:11:48;21.30;76.70
12977;DHT22;6553;48.412;9.514;2023-07-31T04:14:14;21.20;76.60
12977;DHT22;6553;48.412;9.514;2023-07-31T04:16:40;21.20;76.60
12977;DHT22;6553;48.412;9.514;2023-07-31T04:19:05;21.30;76.70
12977;DHT22;6553;48.412;9.514;2023-07-31T04:21:31;21.20;76.60
12977;DHT22;6553;48.412;9.514;2023-07-31T04:23:57;21.20;76.60
12977;DHT22;6553;48.412;9.514;2023-07-31T04:26:23;21.20;76.60
12977;DHT22;6553;48.412;9.514;2023-07-31T04:28:49;21.20;76.60
12977;DHT22;6553;48.412;9.514;2023-07-31T04:31:15;21.20;76.50
12977;DHT22;6553;48.412;9.514;2023-07-31T04:33:40;21.20;76.60
12977;DHT22;6553;48.412;9.514;2023-07-31T04:36:06;21.20;76.60
12977;DHT22;6553;48.412;9.514;2023-07-31T04:38:32;21.20;76.60
12977;DHT22;6553;48.412;9.514;2023-07-31T04:40:58;21.20;76.60
12977;DHT22;6553;48.412;9.514;2023-07-31T04:43:23;21.20;76.60
12977;DHT22;6553;48.412;9.514;2023-07-31T04:45:49;21.20;76.60
12977;DHT22;6553;48.412;9.514;2023-07-31T04:48:15;21.20;76.60
12977;DHT22;6553;48.412;9.514;2023-07-31T04:50:41;21.20;76.60
12977;DHT22;6553;48.412;9.514;2023-07-31T04:53:07;21.20;76.60
12977;DHT22;6553;48.412;9.514;2023-07-31T04:55:33;21.20;76.60
12977;DHT22;6553;48.412;9.514;2023-07-31T04:57:59;21.20;76.60
12977;DHT22;6553;48.412;9.514;2023-07-31T05:00:25;21.20;76.60
12977;DHT22;6553;48.412;9.514;2023-07-31T05:02:51;21.20;76.60
12977;DHT22;6553;48.412;9.514;2023-07-31T05:05:16;21.20;76.60
12977;DHT22;6553;48.412;9.514;2023-07-31T05:07:42;21.20;76.60
12977;DHT22;6553;48.412;9.514;2023-07-31T05:10:08;21.20;76.60
12977;DHT22;6553;48.412;9.514;2023-07-31T05:12:34;21.20;76.60
12977;DHT22;6553;48.412;9.514;2023-07-31T05:15:00;21.20;76.60
12977;DHT22;6553;48.412;9.514;2023-07-31T05:17:25;21.20;76.60
12977;DHT22;6553;48.412;9.514;2023-07-31T05:19:51;21.20;76.60
12977;DHT22;6553;48.412;9.514;2023-07-31T05:22:17;21.20;76.60
12977;DHT22;6553;48.412;9.514;2023-07-31T05:24:42;21.20;76.60
12977;DHT22;6553;48.412;9.514;2023-07-31T05:27:08;21.20;76.60
12977;DHT22;6553;48.412;9.514;2023-07-31T05:29:35;21.20;76.60
12977;DHT22;6553;48.412;9.514;2023-07-31T05:32:01;21.20;76.60
12977;DHT22;6553;48.412;9.514;2023-07-31T05:34:26;21.20;76.60
12977;DHT22;6553;48.412;9.514;2023-07-31T05:36:52;21.20;76.60
12977;DHT22;6553;48.412;9.514;2023-07-31T05:39:18;21.20;76.70
12977;DHT22;6553;48.412;9.514;2023-07-31T05:41:45;21.20;76.70
12977;DHT22;6553;48.412;9.514;2023-07-31T05:44:11;21.20;76.70
12977;DHT22;6553;48.412;9.514;2023-07-31T05:46:37;21.20;76.70
12977;DHT22;6553;48.412;9.514;2023-07-31T05:49:02;21.20;76.70
12977;DHT22;6553;48.412;9.514;2023-07-31T05:51:28;21.20;76.70
12977;DHT22;6553;48.412;9.514;2023-07-31T05:53:54;21.20;76.70
12977;DHT22;6553;48.412;9.514;2023-07-31T05:56:19;21.20;77.50
12977;DHT22;6553;48.412;9.514;2023-07-31T05:58:45;21.20;76.70
12977;DHT22;6553;48.412;9.514;2023-07-31T06:01:11;21.20;76.70
12977;DHT22;6553;48.412;9.514;2023-07-31T06:03:37;21.20;76.70
12977;DHT22;6553;48.412;9.514;2023-07-31T06:06:02;21.20;76.70
12977;DHT22;6553;48.412;9.514;2023-07-31T06:08:28;21.20;76.70
12977;DHT22;6553;48.412;9.514;2023-07-31T06:10:54;21.20;76.70
12977;DHT22;6553;48.412;9.514;2023-07-31T06:13:20;21.20;76.70
12977;DHT22;6553;48.412;9.514;2023-07-31T06:15:45;21.20;76.70
12977;DHT22;6553;48.412;9.514;2023-07-31T06:18:11;21.20;76.70
12977;DHT22;6553;48.412;9.514;2023-07-31T06:20:37;21.20;76.80
12977;DHT22;6553;48.412;9.514;2023-07-31T06:23:06;21.20;76.80
12977;DHT22;6553;48.412;9.514;2023-07-31T06:25:31;21.20;76.80
12977;DHT22;6553;48.412;9.514;2023-07-31T06:27:57;21.20;76.80
12977;DHT22;6553;48.412;9.514;2023-07-31T06:30:23;21.20;76.90
12977;DHT22;6553;48.412;9.514;2023-07-31T06:32:48;21.20;76.90
12977;DHT22;6553;48.412;9.514;2023-07-31T06:35:14;21.20;76.90
12977;DHT22;6553;48.412;9.514;2023-07-31T06:37:40;21.20;76.90
12977;DHT22;6553;48.412;9.514;2023-07-31T06:40:09;21.20;77.00
12977;DHT22;6553;48.412;9.514;2023-07-31T06:42:35;21.20;76.90
12977;DHT22;6553;48.412;9.514;2023-07-31T06:45:04;21.20;76.90
12977;DHT22;6553;48.412;9.514;2023-07-31T06:47:31;21.20;76.90
12977;DHT22;6553;48.412;9.514;2023-07-31T06:49:57;21.20;76.80
12977;DHT22;6553;48.412;9.514;2023-07-31T06:52:23;21.20;76.80
12977;DHT22;6553;48.412;9.514;2023-07-31T06:55:01;21.20;76.80
12977;DHT22;6553;48.412;9.514;2023-07-31T06:57:29;21.20;76.70
12977;DHT22;6553;48.412;9.514;2023-07-31T06:59:55;21.20;76.70
12977;DHT22;6553;48.412;9.514;2023-07-31T07:02:21;21.20;76.60
12977;DHT22;6553;48.412;9.514;2023-07-31T07:04:46;21.20;76.60
12977;DHT22;6553;48.412;9.514;2023-07-31T07:07:12;21.20;76.60
12977;DHT22;6553;48.412;9.514;2023-07-31T07:09:38;21.20;76.60
12977;DHT22;6553;48.412;9.514;2023-07-31T07:12:04;21.20;76.60
12977;DHT22;6553;48.412;9.514;2023-07-31T07:14:30;21.20;76.60
12977;DHT22;6553;48.412;9.514;2023-07-31T07:16:55;21.20;76.60
12977;DHT22;6553;48.412;9.514;2023-07-31T07:19:21;21.20;76.50
12977;DHT22;6553;48.412;9.514;2023-07-31T07:21:47;21.30;76.70
12977;DHT22;6553;48.412;9.514;2023-07-31T07:24:13;21.30;76.50
12977;DHT22;6553;48.412;9.514;2023-07-31T07:26:38;21.30;76.60
12977;DHT22;6553;48.412;9.514;2023-07-31T07:29:04;21.30;76.50
12977;DHT22;6553;48.412;9.514;2023-07-31T07:31:33;21.30;76.50
12977;DHT22;6553;48.412;9.514;2023-07-31T07:33:59;21.30;76.50
12977;DHT22;6553;48.412;9.514;2023-07-31T07:36:25;21.30;76.30
12977;DHT22;6553;48.412;9.514;2023-07-31T07:38:53;21.30;76.20
12977;DHT22;6553;48.412;9.514;2023-07-31T07:41:19;21.30;76.10
12977;DHT22;6553;48.412;9.514;2023-07-31T07:43:44;21.30;76.80
12977;DHT22;6553;48.412;9.514;2023-07-31T07:46:10;21.30;76.00
12977;DHT22;6553;48.412;9.514;2023-07-31T07:48:36;21.30;75.90
12977;DHT22;6553;48.412;9.514;2023-07-31T07:51:02;21.40;76.00
12977;DHT22;6553;48.412;9.514;2023-07-31T07:53:27;21.40;75.90
12977;DHT22;6553;48.412;9.514;2023-07-31T07:55:53;21.40;75.90
12977;DHT22;6553;48.412;9.514;2023-07-31T07:58:19;21.40;75.80
12977;DHT22;6553;48.412;9.514;2023-07-31T08:00:51;21.40;75.90
12977;DHT22;6553;48.412;9.514;2023-07-31T08:03:17;21.40;76.30
12977;DHT22;6553;48.412;9.514;2023-07-31T08:05:44;21.40;75.70
12977;DHT22;6553;48.412;9.514;2023-07-31T08:08:17;21.40;75.40
12977;DHT22;6553;48.412;9.514;2023-07-31T08:10:43;21.40;75.50
12977;DHT22;6553;48.412;9.514;2023-07-31T08:13:10;21.40;75.50
12977;DHT22;6553;48.412;9.514;2023-07-31T08:15:37;21.40;75.40
12977;DHT22;6553;48.412;9.514;2023-07-31T08:18:03;21.40;75.20
12977;DHT22;6553;48.412;9.514;2023-07-31T08:20:28;21.40;75.20
12977;DHT22;6553;48.412;9.514;2023-07-31T08:22:54;21.40;75.10
12977;DHT22;6553;48.412;9.514;2023-07-31T08:25:20;21.50;75.20
12977;DHT22;6553;48.412;9.514;2023-07-31T08:27:46;21.50;75.10
12977;DHT22;6553;48.412;9.514;2023-07-31T08:30:12;21.50;75.10
12977;DHT22;6553;48.412;9.514;2023-07-31T08:32:38;21.50;75.10
12977;DHT22;6553;48.412;9.514;2023-07-31T08:35:04;21.50;75.30
12977;DHT22;6553;48.412;9.514;2023-07-31T08:37:30;21.50;75.10
12977;DHT22;6553;48.412;9.514;2023-07-31T08:39:55;21.50;75.20
12977;DHT22;6553;48.412;9.514;2023-07-31T08:42:21;21.50;75.00
12977;DHT22;6553;48.412;9.514;2023-07-31T08:44:47;21.50;75.00
12977;DHT22;6553;48.412;9.514;2023-07-31T08:47:14;21.50;74.90
12977;DHT22;6553;48.412;9.514;2023-07-31T08:49:42;21.60;74.90
12977;DHT22;6553;48.412;9.514;2023-07-31T08:52:08;21.60;74.80
12977;DHT22;6553;48.412;9.514;2023-07-31T08:54:35;21.60;75.00
12977;DHT22;6553;48.412;9.514;2023-07-31T08:57:01;21.60;74.90
12977;DHT22;6553;48.412;9.514;2023-07-31T08:59:31;21.60;75.00
12977;DHT22;6553;48.412;9.514;2023-07-31T09:02:05;21.60;74.60
12977;DHT22;6553;48.412;9.514;2023-07-31T09:04:33;21.60;74.60
12977;DHT22;6553;48.412;9.514;2023-07-31T09:07:03;21.60;74.60
12977;DHT22;6553;48.412;9.514;2023-07-31T09:09:31;21.60;74.60
12977;DHT22;6553;48.412;9.514;2023-07-31T09:11:58;21.70;74.80
12977;DHT22;6553;48.412;9.514;2023-07-31T09:14:25;21.70;74.80
12977;DHT22;6553;48.412;9.514;2023-07-31T09:16:53;21.60;75.10
12977;DHT22;6553;48.412;9.514;2023-07-31T09:19:34;21.60;74.80
12977;DHT22;6553;48.412;9.514;2023-07-31T09:22:05;21.60;74.60
12977;DHT22;6553;48.412;9.514;2023-07-31T09:24:33;21.60;74.90
12977;DHT22;6553;48.412;9.514;2023-07-31T09:27:01;21.70;75.00
12977;DHT22;6553;48.412;9.514;2023-07-31T09:29:28;21.60;74.80
12977;DHT22;6553;48.412;9.514;2023-07-31T09:31:55;21.60;74.90
12977;DHT22;6553;48.412;9.514;2023-07-31T09:34:46;21.70;75.00
12977;DHT22;6553;48.412;9.514;2023-07-31T09:37:12;21.70;75.30
12977;DHT22;6553;48.412;9.514;2023-07-31T09:39:47;21.70;75.20
12977;DHT22;6553;48.412;9.514;2023-07-31T09:42:13;21.70;75.10
12977;DHT22;6553;48.412;9.514;2023-07-31T09:44:40;21.70;74.70
12977;DHT22;6553;48.412;9.514;2023-07-31T09:47:06;21.70;75.10
12977;DHT22;6553;48.412;9.514;2023-07-31T09:49:46;21.70;75.00
12977;DHT22;6553;48.412;9.514;2023-07-31T09:52:12;21.70;74.70
12977;DHT22;6553;48.412;9.514;2023-07-31T09:54:39;21.70;75.10
12977;DHT22;6553;48.412;9.514;2023-07-31T09:57:05;21.70;75.20
12977;DHT22;6553;48.412;9.514;2023-07-31T09:59:31;21.70;75.20
12977;DHT22;6553;48.412;9.514;2023-07-31T10:01:57;21.70;75.10
12977;DHT22;6553;48.412;9.514;2023-07-31T10:04:26;21.70;75.00
12977;DHT22;6553;48.412;9.514;2023-07-31T10:06:53;21.70;74.80
12977;DHT22;6553;48.412;9.514;2023-07-31T10:09:21;21.70;75.10
12977;DHT22;6553;48.412;9.514;2023-07-31T10:11:56;21.70;74.90
12977;DHT22;6553;48.412;9.514;2023-07-31T10:14:26;21.70;75.00
12977;DHT22;6553;48.412;9.514;2023-07-31T10:16:54;21.70;75.00
12977;DHT22;6553;48.412;9.514;2023-07-31T10:19:21;21.70;74.90
12977;DHT22;6553;48.412;9.514;2023-07-31T10:21:49;21.70;75.00
12977;DHT22;6553;48.412;9.514;2023-07-31T10:24:15;21.70;74.70
12977;DHT22;6553;48.412;9.514;2023-07-31T10:26:45;21.70;74.70
12977;DHT22;6553;48.412;9.514;2023-07-31T10:29:15;21.70;74.70
12977;DHT22;6553;48.412;9.514;2023-07-31T10:31:43;21.70;74.70
12977;DHT22;6553;48.412;9.514;2023-07-31T10:34:11;21.70;74.70
12977;DHT22;6553;48.412;9.514;2023-07-31T10:36:37;21.70;74.70
12977;DHT22;6553;48.412;9.514;2023-07-31T10:39:04;21.70;74.70
12977;DHT22;6553;48.412;9.514;2023-07-31T10:41:30;21.70;75.10
12977;DHT22;6553;48.412;9.514;2023-07-31T10:44:01;21.70;75.10
12977;DHT22;6553;48.412;9.514;2023-07-31T10:46:29;21.70;75.10
12977;DHT22;6553;48.412;9.514;2023-07-31T10:49:00;21.70;75.00
12977;DHT22;6553;48.412;9.514;2023-07-31T10:51:36;21.70;75.30
12977;DHT22;6553;48.412;9.514;2023-07-31T10:54:16;21.70;75.10
12977;DHT22;6553;48.412;9.514;2023-07-31T10:56:46;21.70;75.00
12977;DHT22;6553;48.412;9.514;2023-07-31T10:59:15;21.70;74.70
12977;DHT22;6553;48.412;9.514;2023-07-31T11:01:58;21.70;74.70
12977;DHT22;6553;48.412;9.514;2023-07-31T11:04:27;21.70;74.70
12977;DHT22;6553;48.412;9.514;2023-07-31T11:07:01;21.70;74.80
12977;DHT22;6553;48.412;9.514;2023-07-31T11:09:32;21.70;74.80
12977;DHT22;6553;48.412;9.514;2023-07-31T11:11:59;21.70;74.90
12977;DHT22;6553;48.412;9.514;2023-07-31T11:14:25;21.70;74.70
12977;DHT22;6553;48.412;9.514;2023-07-31T11:16:51;21.70;74.70
12977;DHT22;6553;48.412;9.514;2023-07-31T11:19:24;21.70;75.10
12977;DHT22;6553;48.412;9.514;2023-07-31T11:21:53;21.70;75.10
12977;DHT22;6553;48.412;9.514;2023-07-31T11:24:20;21.70;75.20
12977;DHT22;6553;48.412;9.514;2023-07-31T11:26:53;21.70;75.30
12977;DHT22;6553;48.412;9.514;2023-07-31T11:29:19;21.70;75.40
12977;DHT22;6553;48.412;9.514;2023-07-31T11:31:46;21.70;75.30
12977;DHT22;6553;48.412;9.514;2023-07-31T11:34:13;21.70;75.40
12977;DHT22;6553;48.412;9.514;2023-07-31T11:36:38;21.70;75.40
12977;DHT22;6553;48.412;9.514;2023-07-31T11:39:07;21.70;75.30
12977;DHT22;6553;48.412;9.514;2023-07-31T11:41:33;21.70;75.30
12977;DHT22;6553;48.412;9.514;2023-07-31T11:44:00;21.70;75.30
12977;DHT22;6553;48.412;9.514;2023-07-31T11:46:27;21.70;75.30
12977;DHT22;6553;48.412;9.514;2023-07-31T11:48:59;21.70;75.20
12977;DHT22;6553;48.412;9.514;2023-07-31T11:51:27;21.80;75.20
12977;DHT22;6553;48.412;9.514;2023-07-31T11:53:57;21.80;75.10
12977;DHT22;6553;48.412;9.514;2023-07-31T11:56:25;21.80;75.40
12977;DHT22;6553;48.412;9.514;2023-07-31T11:58:59;21.80;75.50
12977;DHT22;6553;48.412;9.514;2023-07-31T12:01:28;21.80;75.40
12977;DHT22;6553;48.412;9.514;2023-07-31T12:03:55;21.80;75.20
12977;DHT22;6553;48.412;9.514;2023-07-31T12:06:22;21.80;76.00
12977;DHT22;6553;48.412;9.514;2023-07-31T12:09:03;21.80;75.40
12977;DHT22;6553;48.412;9.514;2023-07-31T12:11:29;21.80;75.80
12977;DHT22;6553;48.412;9.514;2023-07-31T12:13:56;21.80;75.90
12977;DHT22;6553;48.412;9.514;2023-07-31T12:16:26;21.80;75.60
12977;DHT22;6553;48.412;9.514;2023-07-31T12:18:52;21.80;75.40
12977;DHT22;6553;48.412;9.514;2023-07-31T12:21:19;21.80;75.30
12977;DHT22;6553;48.412;9.514;2023-07-31T12:23:45;21.80;75.50
12977;DHT22;6553;48.412;9.514;2023-07-31T12:26:13;21.80;75.40
12977;DHT22;6553;48.412;9.514;2023-07-31T12:28:47;21.80;75.70
12977;DHT22;6553;48.412;9.514;2023-07-31T12:31:21;21.80;75.50
12977;DHT22;6553;48.412;9.514;2023-07-31T12:33:49;21.80;76.20
12977;DHT22;6553;48.412;9.514;2023-07-31T12:36:20;21.80;75.90
12977;DHT22;6553;48.412;9.514;2023-07-31T12:38:46;21.80;75.70
12977;DHT22;6553;48.412;9.514;2023-07-31T12:41:13;21.80;75.90
12977;DHT22;6553;48.412;9.514;2023-07-31T12:43:40;21.80;75.50
12977;DHT22;6553;48.412;9.514;2023-07-31T12:46:07;21.80;75.40
12977;DHT22;6553;48.412;9.514;2023-07-31T12:48:34;21.80;75.30
12977;DHT22;6553;48.412;9.514;2023-07-31T12:51:00;21.80;75.50
12977;DHT22;6553;48.412;9.514;2023-07-31T12:53:27;21.80;75.40
12977;DHT22;6553;48.412;9.514;2023-07-31T12:55:53;21.80;75.70
12977;DHT22;6553;48.412;9.514;2023-07-31T12:58:20;21.80;75.60
12977;DHT22;6553;48.412;9.514;2023-07-31T13:00:45;21.80;75.80
12977;DHT22;6553;48.412;9.514;2023-07-31T13:03:11;21.90;75.80
12977;DHT22;6553;48.412;9.514;2023-07-31T13:05:37;21.90;76.00
12977;DHT22;6553;48.412;9.514;2023-07-31T13:08:03;21.80;75.80
12977;DHT22;6553;48.412;9.514;2023-07-31T13:10:28;21.80;75.60
12977;DHT22;6553;48.412;9.514;2023-07-31T13:12:55;21.90;75.70
12977;DHT22;6553;48.412;9.514;2023-07-31T13:15:21;21.90;75.80
12977;DHT22;6553;48.412;9.514;2023-07-31T13:17:47;21.80;76.00
12977;DHT22;6553;48.412;9.514;2023-07-31T13:20:13;21.90;75.80
12977;DHT22;6553;48.412;9.514;2023-07-31T13:22:39;21.90;75.70
12977;DHT22;6553;48.412;9.514;2023-07-31T13:25:05;21.90;75.70
12977;DHT22;6553;48.412;9.514;2023-07-31T13:27:32;21.90;76.00
12977;DHT22;6553;48.412;9.514;2023-07-31T13:29:57;21.90;75.70
12977;DHT22;6553;48.412;9.514;2023-07-31T13:32:23;21.80;75.80
12977;DHT22;6553;48.412;9.514;2023-07-31T13:34:49;21.90;75.80
12977;DHT22;6553;48.412;9.514;2023-07-31T13:37:15;21.90;76.10
12977;DHT22;6553;48.412;9.514;2023-07-31T13:39:41;21.90;75.90
12977;DHT22;6553;48.412;9.514;2023-07-31T13:42:08;21.90;75.90
12977;DHT22;6553;48.412;9.514;2023-07-31T13:44:35;21.90;75.90
12977;DHT22;6553;48.412;9.514;2023-07-31T13:47:01;21.90;75.40
12977;DHT22;6553;48.412;9.514;2023-07-31T13:49:27;21.90;75.70
12977;DHT22;6553;48.412;9.514;2023-07-31T13:51:54;21.90;75.70
12977;DHT22;6553;48.412;9.514;2023-07-31T13:54:19;21.90;75.50
12977;DHT22;6553;48.412;9.514;2023-07-31T13:56:45;21.90;75.40
12977;DHT22;6553;48.412;9.514;2023-07-31T13:59:11;21.90;75.90
12977;DHT22;6553;48.412;9.514;2023-07-31T14:01:37;21.90;75.80
12977;DHT22;6553;48.412;9.514;2023-07-31T14:04:03;21.90;75.50
12977;DHT22;6553;48.412;9.514;2023-07-31T14:06:29;21.90;75.40
12977;DHT22;6553;48.412;9.514;2023-07-31T14:08:54;21.90;75.20
12977;DHT22;6553;48.412;9.514;2023-07-31T14:11:24;21.90;75.40
12977;DHT22;6553;48.412;9.514;2023-07-31T14:13:50;21.90;75.30
12977;DHT22;6553;48.412;9.514;2023-07-31T14:16:17;22.00;75.40
12977;DHT22;6553;48.412;9.514;2023-07-31T14:18:43;21.90;75.40
12977;DHT22;6553;48.412;9.514;2023-07-31T14:21:08;22.00;75.50
12977;DHT22;6553;48.412;9.514;2023-07-31T14:23:34;21.90;75.50
12977;DHT22;6553;48.412;9.514;2023-07-31T14:26:00;21.90;75.50
12977;DHT22;6553;48.412;9.514;2023-07-31T14:28:26;21.90;75.40
12977;DHT22;6553;48.412;9.514;2023-07-31T14:30:51;21.90;75.30
12977;DHT22;6553;48.412;9.514;2023-07-31T14:33:17;21.90;75.50
12977;DHT22;6553;48.412;9.514;2023-07-31T14:35:43;21.90;75.50
12977;DHT22;6553;48.412;9.514;2023-07-31T14:38:09;21.90;75.70
12977;DHT22;6553;48.412;9.514;2023-07-31T14:40:35;21.90;75.70
12977;DHT22;6553;48.412;9.514;2023-07-31T14:43:01;21.90;75.60
12977;DHT22;6553;48.412;9.514;2023-07-31T14:45:27;21.90;75.80
12977;DHT22;6553;48.412;9.514;2023-07-31T14:47:53;21.90;75.80
12977;DHT22;6553;48.412;9.514;2023-07-31T14:50:20;21.90;75.70
12977;DHT22;6553;48.412;9.514;2023-07-31T14:52:47;21.90;75.90
12977;DHT22;6553;48.412;9.514;2023-07-31T14:55:13;21.90;75.70
12977;DHT22;6553;48.412;9.514;2023-07-31T14:57:39;21.90;76.00
12977;DHT22;6553;48.412;9.514;2023-07-31T15:00:05;21.90;75.70
12977;DHT22;6553;48.412;9.514;2023-07-31T15:02:39;21.90;75.70
12977;DHT22;6553;48.412;9.514;2023-07-31T15:05:06;21.90;75.70
12977;DHT22;6553;48.412;9.514;2023-07-31T15:07:33;21.90;75.60
12977;DHT22;6553;48.412;9.514;2023-07-31T15:10:01;21.90;75.90
12977;DHT22;6553;48.412;9.514;2023-07-31T15:12:27;21.90;75.80
12977;DHT22;6553;48.412;9.514;2023-07-31T15:14:53;21.90;75.80
12977;DHT22;6553;48.412;9.514;2023-07-31T15:17:19;21.90;75.90
12977;DHT22;6553;48.412;9.514;2023-07-31T15:19:45;21.90;75.80
12977;DHT22;6553;48.412;9.514;2023-07-31T15:22:10;21.90;76.20
12977;DHT22;6553;48.412;9.514;2023-07-31T15:24:36;21.90;76.20
12977;DHT22;6553;48.412;9.514;2023-07-31T15:27:02;21.90;76.20
12977;DHT22;6553;48.412;9.514;2023-07-31T15:29:29;21.90;76.10
12977;DHT22;6553;48.412;9.514;2023-07-31T15:31:55;21.90;75.90
12977;DHT22;6553;48.412;9.514;2023-07-31T15:34:21;21.90;75.90
12977;DHT22;6553;48.412;9.514;2023-07-31T15:36:48;21.90;75.80
12977;DHT22;6553;48.412;9.514;2023-07-31T15:39:13;21.90;75.80
12977;DHT22;6553;48.412;9.514;2023-07-31T15:41:40;21.90;75.90
12977;DHT22;6553;48.412;9.514;2023-07-31T15:44:07;21.90;75.80
12977;DHT22;6553;48.412;9.514;2023-07-31T15:46:33;21.90;75.80
12977;DHT22;6553;48.412;9.514;2023-07-31T15:48:59;21.80;76.10
12977;DHT22;6553;48.412;9.514;2023-07-31T15:51:25;21.90;76.10
12977;DHT22;6553;48.412;9.514;2023-07-31T15:53:52;21.90;75.80
12977;DHT22;6553;48.412;9.514;2023-07-31T15:56:18;21.90;75.90